sensor_id;sensor_type;location;lat;lon;timestamp;temperature;humidity
63976;DHT22;50167;47.958;21.780;2023-05-29T00:00:36;17.74;62.62
63976;DHT22;50167;47.958;21.780;2023-05-29T00:03:03;19.22;61.13
63976;DHT22;50167;47.958;21.780;2023-05-29T00:05:30;20.13;58.32
63976;DHT22;50167;47.958;21.780;2023-05-29T00:07:57;20.05;55.00
63976;DHT22;50167;47.958;21.780;2023-05-29T00:10:23;19.41;55.17
63976;DHT22;50167;47.958;21.780;2023-05-29T00:12:49;18.86;56.11
63976;DHT22;50167;47.958;21.780;2023-05-29T00:15:16;18.48;57.22
63976;DHT22;50167;47.958;21.780;2023-05-29T00:17:42;18.18;57.96
63976;DHT22;50167;47.958;21.780;2023-05-29T00:20:10;17.94;58.61
63976;DHT22;50167;47.958;21.780;2023-05-29T00:22:37;17.76;59.03
63976;DHT22;50167;47.958;21.780;2023-05-29T00:25:06;17.57;59.89
63976;DHT22;50167;47.958;21.780;2023-05-29T00:27:34;17.43;60.24
63976;DHT22;50167;47.958;21.780;2023-05-29T00:30:01;17.30;60.37
63976;DHT22;50167;47.958;21.780;2023-05-29T00:32:28;17.19;60.95
63976;DHT22;50167;47.958;21.780;2023-05-29T00:34:54;17.15;61.23
63976;DHT22;50167;47.958;21.780;2023-05-29T00:37:22;17.04;61.51
63976;DHT22;50167;47.958;21.780;2023-05-29T00:39:49;16.97;61.91
63976;DHT22;50167;47.958;21.780;2023-05-29T00:42:15;16.88;62.15
63976;DHT22;50167;47.958;21.780;2023-05-29T00:44:41;16.83;62.41
63976;DHT22;50167;47.958;21.780;2023-05-29T00:47:08;17.49;62.53
63976;DHT22;50167;47.958;21.780;2023-05-29T00:49:36;18.80;61.04
63976;DHT22;50167;47.958;21.780;2023-05-29T00:52:05;19.70;58.48
63976;DHT22;50167;47.958;21.780;2023-05-29T00:54:34;19.65;56.40
63976;DHT22;50167;47.958;21.780;2023-05-29T00:57:01;19.02;56.45
63976;DHT22;50167;47.958;21.780;2023-05-29T00:59:32;18.50;57.72
63976;DHT22;50167;47.958;21.780;2023-05-29T01:02:00;18.12;58.28
63976;DHT22;50167;47.958;21.780;2023-05-29T01:04:28;17.81;58.90
63976;DHT22;50167;47.958;21.780;2023-05-29T01:06:54;17.58;59.75
63976;DHT22;50167;47.958;21.780;2023-05-29T01:09:21;17.40;60.10
63976;DHT22;50167;47.958;21.780;2023-05-29T01:12:14;17.22;60.95
63976;DHT22;50167;47.958;21.780;2023-05-29T01:23:22;17.54;60.86
63976;DHT22;50167;47.958;21.780;2023-05-29T01:27:13;18.79;59.14
63976;DHT22;50167;47.958;21.780;2023-05-29T01:28:57;18.80;56.89
63976;DHT22;50167;47.958;21.780;2023-05-29T01:31:26;18.14;57.70
63976;DHT22;50167;47.958;21.780;2023-05-29T01:33:58;17.66;59.04
63976;DHT22;50167;47.958;21.780;2023-05-29T01:36:26;17.30;59.77
63976;DHT22;50167;47.958;21.780;2023-05-29T01:38:55;17.05;60.99
63976;DHT22;50167;47.958;21.780;2023-05-29T01:41:23;16.86;61.45
63976;DHT22;50167;47.958;21.780;2023-05-29T01:43:50;16.70;62.27
63976;DHT22;50167;47.958;21.780;2023-05-29T01:46:18;16.56;62.30
63976;DHT22;50167;47.958;21.780;2023-05-29T01:48:45;17.08;63.00
63976;DHT22;50167;47.958;21.780;2023-05-29T01:51:12;18.35;60.20
63976;DHT22;50167;47.958;21.780;2023-05-29T01:53:41;19.08;57.20
63976;DHT22;50167;47.958;21.780;2023-05-29T01:56:08;18.97;56.12
63976;DHT22;50167;47.958;21.780;2023-05-29T01:58:38;18.32;57.20
63976;DHT22;50167;47.958;21.780;2023-05-29T02:01:06;17.81;58.37
63976;DHT22;50167;47.958;21.780;2023-05-29T02:03:33;17.42;59.45
63976;DHT22;50167;47.958;21.780;2023-05-29T02:06:00;17.12;60.37
63976;DHT22;50167;47.958;21.780;2023-05-29T02:08:27;16.91;61.17
63976;DHT22;50167;47.958;21.780;2023-05-29T02:10:53;16.72;61.56
63976;DHT22;50167;47.958;21.780;2023-05-29T02:13:19;16.59;62.19
63976;DHT22;50167;47.958;21.780;2023-05-29T02:15:46;16.46;62.54
63976;DHT22;50167;47.958;21.780;2023-05-29T02:18:15;17.16;63.03
63976;DHT22;50167;47.958;21.780;2023-05-29T02:20:43;18.49;61.32
63976;DHT22;50167;47.958;21.780;2023-05-29T02:23:10;19.29;58.28
63976;DHT22;50167;47.958;21.780;2023-05-29T02:25:36;19.24;55.61
63976;DHT22;50167;47.958;21.780;2023-05-29T02:28:03;18.52;56.17
63976;DHT22;50167;47.958;21.780;2023-05-29T02:30:29;17.94;57.30
63976;DHT22;50167;47.958;21.780;2023-05-29T02:32:56;17.53;58.47
63976;DHT22;50167;47.958;21.780;2023-05-29T02:35:22;17.22;59.35
63976;DHT22;50167;47.958;21.780;2023-05-29T02:37:49;16.95;60.26
63976;DHT22;50167;47.958;21.780;2023-05-29T02:40:16;16.72;60.81
63976;DHT22;50167;47.958;21.780;2023-05-29T02:42:43;16.47;61.59
63976;DHT22;50167;47.958;21.780;2023-05-29T02:45:10;16.29;62.23
63976;DHT22;50167;47.958;21.780;2023-05-29T02:47:37;16.95;63.57
63976;DHT22;50167;47.958;21.780;2023-05-29T02:50:05;18.19;62.16
63976;DHT22;50167;47.958;21.780;2023-05-29T02:52:35;18.97;59.49
63976;DHT22;50167;47.958;21.780;2023-05-29T02:55:06;18.90;56.80
63976;DHT22;50167;47.958;21.780;2023-05-29T02:57:32;18.23;57.82
63976;DHT22;50167;47.958;21.780;2023-05-29T02:59:58;17.67;58.76
63976;DHT22;50167;47.958;21.780;2023-05-29T03:02:26;17.27;59.78
63976;DHT22;50167;47.958;21.780;2023-05-29T03:04:52;16.99;60.61
63976;DHT22;50167;47.958;21.780;2023-05-29T03:07:20;16.74;61.22
63976;DHT22;50167;47.958;21.780;2023-05-29T03:09:46;16.51;62.16
63976;DHT22;50167;47.958;21.780;2023-05-29T03:12:12;16.32;62.80
63976;DHT22;50167;47.958;21.780;2023-05-29T03:14:38;16.88;63.87
63976;DHT22;50167;47.958;21.780;2023-05-29T03:17:06;18.11;62.63
63976;DHT22;50167;47.958;21.780;2023-05-29T03:19:33;19.00;60.10
63976;DHT22;50167;47.958;21.780;2023-05-29T03:22:00;19.04;56.98
63976;DHT22;50167;47.958;21.780;2023-05-29T03:24:26;18.36;57.28
63976;DHT22;50167;47.958;21.780;2023-05-29T03:26:53;17.77;58.61
63976;DHT22;50167;47.958;21.780;2023-05-29T03:29:19;17.33;59.84
63976;DHT22;50167;47.958;21.780;2023-05-29T03:31:45;17.04;60.54
63976;DHT22;50167;47.958;21.780;2023-05-29T03:34:11;16.80;61.85
63976;DHT22;50167;47.958;21.780;2023-05-29T03:36:39;16.64;62.34
63976;DHT22;50167;47.958;21.780;2023-05-29T03:39:05;17.22;63.94
63976;DHT22;50167;47.958;21.780;2023-05-29T03:41:32;18.63;62.78
63976;DHT22;50167;47.958;21.780;2023-05-29T03:43:58;19.55;59.54
63976;DHT22;50167;47.958;21.780;2023-05-29T03:46:24;19.50;56.02
63976;DHT22;50167;47.958;21.780;2023-05-29T03:48:50;18.74;56.71
63976;DHT22;50167;47.958;21.780;2023-05-29T03:51:17;18.15;57.81
63976;DHT22;50167;47.958;21.780;2023-05-29T03:53:43;17.73;59.04
63976;DHT22;50167;47.958;21.780;2023-05-29T03:56:09;17.39;60.13
63976;DHT22;50167;47.958;21.780;2023-05-29T03:58:35;17.18;61.09
63976;DHT22;50167;47.958;21.780;2023-05-29T04:01:02;17.01;61.90
63976;DHT22;50167;47.958;21.780;2023-05-29T04:03:29;16.88;62.41
63976;DHT22;50167;47.958;21.780;2023-05-29T04:05:56;17.35;62.66
63976;DHT22;50167;47.958;21.780;2023-05-29T04:08:23;18.48;61.69
63976;DHT22;50167;47.958;21.780;2023-05-29T04:10:49;19.45;59.82
63976;DHT22;50167;47.958;21.780;2023-05-29T04:13:17;19.49;56.13
63976;DHT22;50167;47.958;21.780;2023-05-29T04:15:43;18.81;56.81
63976;DHT22;50167;47.958;21.780;2023-05-29T04:18:09;18.22;58.01
63976;DHT22;50167;47.958;21.780;2023-05-29T04:20:35;17.84;59.30
63976;DHT22;50167;47.958;21.780;2023-05-29T04:23:02;17.58;60.38
63976;DHT22;50167;47.958;21.780;2023-05-29T04:25:28;17.39;60.84
63976;DHT22;50167;47.958;21.780;2023-05-29T04:27:54;17.23;61.96
63976;DHT22;50167;47.958;21.780;2023-05-29T04:30:21;17.16;62.23
63976;DHT22;50167;47.958;21.780;2023-05-29T04:32:47;17.07;62.75
63976;DHT22;50167;47.958;21.780;2023-05-29T04:35:14;17.83;62.73
63976;DHT22;50167;47.958;21.780;2023-05-29T04:37:40;19.12;58.58
63976;DHT22;50167;47.958;21.780;2023-05-29T04:40:08;19.46;57.03
63976;DHT22;50167;47.958;21.780;2023-05-29T04:42:36;18.98;57.17
63976;DHT22;50167;47.958;21.780;2023-05-29T04:45:03;18.63;57.86
63976;DHT22;50167;47.958;21.780;2023-05-29T04:47:31;18.36;58.35
63976;DHT22;50167;47.958;21.780;2023-05-29T04:50:00;18.22;59.56
63976;DHT22;50167;47.958;21.780;2023-05-29T04:52:27;18.09;60.12
63976;DHT22;50167;47.958;21.780;2023-05-29T04:54:55;18.08;60.59
63976;DHT22;50167;47.958;21.780;2023-05-29T04:57:22;18.07;60.46
63976;DHT22;50167;47.958;21.780;2023-05-29T04:59:49;18.08;60.60
63976;DHT22;50167;47.958;21.780;2023-05-29T05:02:15;18.09;60.76
63976;DHT22;50167;47.958;21.780;2023-05-29T05:04:41;18.15;60.73
63976;DHT22;50167;47.958;21.780;2023-05-29T05:07:09;18.15;60.81
63976;DHT22;50167;47.958;21.780;2023-05-29T05:09:35;18.21;60.63
63976;DHT22;50167;47.958;21.780;2023-05-29T05:12:02;18.29;60.79
63976;DHT22;50167;47.958;21.780;2023-05-29T05:14:28;18.37;60.35
63976;DHT22;50167;47.958;21.780;2023-05-29T05:16:54;18.46;60.22
63976;DHT22;50167;47.958;21.780;2023-05-29T05:19:20;18.56;60.46
63976;DHT22;50167;47.958;21.780;2023-05-29T05:21:46;18.64;60.51
63976;DHT22;50167;47.958;21.780;2023-05-29T05:24:12;18.77;60.37
63976;DHT22;50167;47.958;21.780;2023-05-29T05:26:39;18.91;60.16
63976;DHT22;50167;47.958;21.780;2023-05-29T05:29:05;19.09;60.18
63976;DHT22;50167;47.958;21.780;2023-05-29T05:31:31;19.27;60.16
63976;DHT22;50167;47.958;21.780;2023-05-29T05:33:57;19.48;59.68
63976;DHT22;50167;47.958;21.780;2023-05-29T05:36:23;19.65;59.64
63976;DHT22;50167;47.958;21.780;2023-05-29T05:38:51;19.81;59.21
63976;DHT22;50167;47.958;21.780;2023-05-29T05:41:17;19.87;58.96
63976;DHT22;50167;47.958;21.780;2023-05-29T05:43:43;19.90;58.94
63976;DHT22;50167;47.958;21.780;2023-05-29T05:46:10;19.88;59.12
63976;DHT22;50167;47.958;21.780;2023-05-29T05:48:36;19.94;59.60
63976;DHT22;50167;47.958;21.780;2023-05-29T05:51:04;20.01;59.51
63976;DHT22;50167;47.958;21.780;2023-05-29T05:53:30;20.13;59.09
63976;DHT22;50167;47.958;21.780;2023-05-29T05:55:56;20.20;58.89
63976;DHT22;50167;47.958;21.780;2023-05-29T05:58:22;20.27;58.41
63976;DHT22;50167;47.958;21.780;2023-05-29T06:00:48;20.42;58.71
63976;DHT22;50167;47.958;21.780;2023-05-29T06:03:16;20.66;58.55
63976;DHT22;50167;47.958;21.780;2023-05-29T06:05:43;20.82;58.29
63976;DHT22;50167;47.958;21.780;2023-05-29T06:08:09;20.96;57.73
63976;DHT22;50167;47.958;21.780;2023-05-29T06:10:35;21.07;57.89
63976;DHT22;50167;47.958;21.780;2023-05-29T06:13:03;21.14;57.43
63976;DHT22;50167;47.958;21.780;2023-05-29T06:15:29;21.28;56.20
63976;DHT22;50167;47.958;21.780;2023-05-29T06:17:55;21.28;56.62
63976;DHT22;50167;47.958;21.780;2023-05-29T06:20:21;21.33;57.00
63976;DHT22;50167;47.958;21.780;2023-05-29T06:22:49;21.42;56.54
63976;DHT22;50167;47.958;21.780;2023-05-29T06:25:19;21.54;56.81
63976;DHT22;50167;47.958;21.780;2023-05-29T06:27:45;21.58;56.68
63976;DHT22;50167;47.958;21.780;2023-05-29T06:30:13;21.61;56.27
63976;DHT22;50167;47.958;21.780;2023-05-29T06:32:39;21.61;56.53
63976;DHT22;50167;47.958;21.780;2023-05-29T06:35:06;21.69;56.51
63976;DHT22;50167;47.958;21.780;2023-05-29T06:37:33;21.70;56.46
63976;DHT22;50167;47.958;21.780;2023-05-29T06:39:59;21.78;55.58
63976;DHT22;50167;47.958;21.780;2023-05-29T06:42:25;21.73;55.66
63976;DHT22;50167;47.958;21.780;2023-05-29T06:44:51;21.80;55.89
63976;DHT22;50167;47.958;21.780;2023-05-29T06:47:17;21.89;55.30
63976;DHT22;50167;47.958;21.780;2023-05-29T06:49:44;21.92;55.80
63976;DHT22;50167;47.958;21.780;2023-05-29T06:52:10;22.00;55.56
63976;DHT22;50167;47.958;21.780;2023-05-29T06:54:36;22.16;55.61
63976;DHT22;50167;47.958;21.780;2023-05-29T06:57:03;22.23;54.74
63976;DHT22;50167;47.958;21.780;2023-05-29T06:59:29;22.21;54.45
63976;DHT22;50167;47.958;21.780;2023-05-29T07:01:55;22.20;55.48
63976;DHT22;50167;47.958;21.780;2023-05-29T07:04:21;22.30;55.51
63976;DHT22;50167;47.958;21.780;2023-05-29T07:06:47;22.43;55.08
63976;DHT22;50167;47.958;21.780;2023-05-29T07:09:14;22.61;54.88
63976;DHT22;50167;47.958;21.780;2023-05-29T07:11:40;22.71;54.70
63976;DHT22;50167;47.958;21.780;2023-05-29T07:14:06;22.79;54.39
63976;DHT22;50167;47.958;21.780;2023-05-29T07:16:32;22.86;53.98
63976;DHT22;50167;47.958;21.780;2023-05-29T07:18:59;22.99;53.93
63976;DHT22;50167;47.958;21.780;2023-05-29T07:21:25;23.12;53.65
63976;DHT22;50167;47.958;21.780;2023-05-29T07:23:52;23.22;53.08
63976;DHT22;50167;47.958;21.780;2023-05-29T07:26:18;23.29;53.03
63976;DHT22;50167;47.958;21.780;2023-05-29T07:28:44;23.34;52.76
63976;DHT22;50167;47.958;21.780;2023-05-29T07:31:10;23.43;52.94
63976;DHT22;50167;47.958;21.780;2023-05-29T07:33:36;23.53;52.27
63976;DHT22;50167;47.958;21.780;2023-05-29T07:36:05;23.61;51.81
63976;DHT22;50167;47.958;21.780;2023-05-29T07:38:32;23.62;52.43
63976;DHT22;50167;47.958;21.780;2023-05-29T07:40:58;23.74;52.07
63976;DHT22;50167;47.958;21.780;2023-05-29T07:43:24;23.83;51.68
63976;DHT22;50167;47.958;21.780;2023-05-29T07:45:52;23.96;51.88
63976;DHT22;50167;47.958;21.780;2023-05-29T07:48:18;24.05;51.33
63976;DHT22;50167;47.958;21.780;2023-05-29T07:50:45;24.09;51.15
63976;DHT22;50167;47.958;21.780;2023-05-29T07:53:12;24.19;51.28
63976;DHT22;50167;47.958;21.780;2023-05-29T07:55:38;24.26;51.62
63976;DHT22;50167;47.958;21.780;2023-05-29T07:58:04;24.36;51.37
63976;DHT22;50167;47.958;21.780;2023-05-29T08:00:30;24.42;51.23
63976;DHT22;50167;47.958;21.780;2023-05-29T08:02:57;24.40;50.46
63976;DHT22;50167;47.958;21.780;2023-05-29T08:05:23;24.40;51.25
63976;DHT22;50167;47.958;21.780;2023-05-29T08:07:50;24.50;51.04
63976;DHT22;50167;47.958;21.780;2023-05-29T08:10:16;24.61;50.80
63976;DHT22;50167;47.958;21.780;2023-05-29T08:12:42;24.70;50.65
63976;DHT22;50167;47.958;21.780;2023-05-29T08:15:09;24.81;50.88
63976;DHT22;50167;47.958;21.780;2023-05-29T08:17:36;24.95;50.32
63976;DHT22;50167;47.958;21.780;2023-05-29T08:20:02;25.07;50.34
63976;DHT22;50167;47.958;21.780;2023-05-29T08:22:30;25.17;49.99
63976;DHT22;50167;47.958;21.780;2023-05-29T08:24:59;25.29;49.57
63976;DHT22;50167;47.958;21.780;2023-05-29T08:31:24;25.77;48.89
63976;DHT22;50167;47.958;21.780;2023-05-29T08:33:51;25.90;48.23
63976;DHT22;50167;47.958;21.780;2023-05-29T08:36:18;25.91;47.68
63976;DHT22;50167;47.958;21.780;2023-05-29T08:38:46;25.98;48.17
63976;DHT22;50167;47.958;21.780;2023-05-29T08:41:25;26.08;47.65
63976;DHT22;50167;47.958;21.780;2023-05-29T08:43:53;26.11;46.93
63976;DHT22;50167;47.958;21.780;2023-05-29T08:46:19;26.04;47.28
63976;DHT22;50167;47.958;21.780;2023-05-29T08:48:50;25.91;46.89
63976;DHT22;50167;47.958;21.780;2023-05-29T08:51:22;25.77;47.77
63976;DHT22;50167;47.958;21.780;2023-05-29T08:53:49;25.72;47.53
63976;DHT22;50167;47.958;21.780;2023-05-29T08:56:18;25.80;47.80
63976;DHT22;50167;47.958;21.780;2023-05-29T08:58:45;25.88;47.30
63976;DHT22;50167;47.958;21.780;2023-05-29T09:01:12;26.01;47.20
63976;DHT22;50167;47.958;21.780;2023-05-29T09:03:38;26.18;47.22
63976;DHT22;50167;47.958;21.780;2023-05-29T09:06:07;26.46;45.77
63976;DHT22;50167;47.958;21.780;2023-05-29T09:08:35;26.62;46.39
63976;DHT22;50167;47.958;21.780;2023-05-29T09:11:03;26.78;45.05
63976;DHT22;50167;47.958;21.780;2023-05-29T09:13:29;26.97;45.78
63976;DHT22;50167;47.958;21.780;2023-05-29T09:15:59;27.13;45.48
63976;DHT22;50167;47.958;21.780;2023-05-29T09:18:33;27.30;44.75
63976;DHT22;50167;47.958;21.780;2023-05-29T09:20:58;27.47;44.55
63976;DHT22;50167;47.958;21.780;2023-05-29T09:23:26;27.58;43.70
63976;DHT22;50167;47.958;21.780;2023-05-29T09:25:53;27.65;43.76
63976;DHT22;50167;47.958;21.780;2023-05-29T09:28:21;27.85;44.25
63976;DHT22;50167;47.958;21.780;2023-05-29T09:30:50;28.02;43.96
63976;DHT22;50167;47.958;21.780;2023-05-29T09:33:19;28.22;43.47
63976;DHT22;50167;47.958;21.780;2023-05-29T09:35:55;28.20;42.85
63976;DHT22;50167;47.958;21.780;2023-05-29T09:38:21;28.13;43.05
63976;DHT22;50167;47.958;21.780;2023-05-29T09:40:49;28.19;43.61
63976;DHT22;50167;47.958;21.780;2023-05-29T09:43:18;28.16;42.21
63976;DHT22;50167;47.958;21.780;2023-05-29T09:45:49;27.92;42.69
63976;DHT22;50167;47.958;21.780;2023-05-29T09:48:24;27.62;43.79
63976;DHT22;50167;47.958;21.780;2023-05-29T09:50:50;27.38;44.25
63976;DHT22;50167;47.958;21.780;2023-05-29T09:53:28;27.31;43.82
63976;DHT22;50167;47.958;21.780;2023-05-29T09:55:56;27.35;43.77
63976;DHT22;50167;47.958;21.780;2023-05-29T09:58:26;27.42;44.25
63976;DHT22;50167;47.958;21.780;2023-05-29T10:00:53;27.54;43.36
63976;DHT22;50167;47.958;21.780;2023-05-29T10:03:19;27.65;42.85
63976;DHT22;50167;47.958;21.780;2023-05-29T10:05:50;27.80;43.22
63976;DHT22;50167;47.958;21.780;2023-05-29T10:08:20;27.96;42.97
63976;DHT22;50167;47.958;21.780;2023-05-29T10:10:54;28.06;43.80
63976;DHT22;50167;47.958;21.780;2023-05-29T10:13:18;28.24;43.30
63976;DHT22;50167;47.958;21.780;2023-05-29T10:15:46;28.41;41.57
63976;DHT22;50167;47.958;21.780;2023-05-29T10:18:31;28.33;41.93
63976;DHT22;50167;47.958;21.780;2023-05-29T10:20:56;27.96;42.39
63976;DHT22;50167;47.958;21.780;2023-05-29T10:23:25;27.69;42.84
63976;DHT22;50167;47.958;21.780;2023-05-29T10:25:58;27.62;42.93
63976;DHT22;50167;47.958;21.780;2023-05-29T10:28:28;27.65;42.15
63976;DHT22;50167;47.958;21.780;2023-05-29T10:31:05;27.64;41.98
63976;DHT22;50167;47.958;21.780;2023-05-29T10:36:22;28.00;42.25
63976;DHT22;50167;47.958;21.780;2023-05-29T10:38:51;28.30;41.44
63976;DHT22;50167;47.958;21.780;2023-05-29T10:41:28;28.44;40.84
63976;DHT22;50167;47.958;21.780;2023-05-29T10:43:58;28.60;41.08
63976;DHT22;50167;47.958;21.780;2023-05-29T10:49:17;29.05;39.49
63976;DHT22;50167;47.958;21.780;2023-05-29T10:51:45;29.19;39.92
63976;DHT22;50167;47.958;21.780;2023-05-29T10:54:11;29.32;39.94
63976;DHT22;50167;47.958;21.780;2023-05-29T10:56:40;29.47;40.61
63976;DHT22;50167;47.958;21.780;2023-05-29T10:59:09;29.65;40.27
63976;DHT22;50167;47.958;21.780;2023-05-29T11:01:38;29.71;38.91
63976;DHT22;50167;47.958;21.780;2023-05-29T11:06:54;29.67;39.37
63976;DHT22;50167;47.958;21.780;2023-05-29T11:09:36;29.72;39.62
63976;DHT22;50167;47.958;21.780;2023-05-29T11:12:23;29.71;39.20
63976;DHT22;50167;47.958;21.780;2023-05-29T11:15:08;29.74;38.84
63976;DHT22;50167;47.958;21.780;2023-05-29T11:17:44;29.69;38.33
63976;DHT22;50167;47.958;21.780;2023-05-29T11:20:37;29.61;38.00
63976;DHT22;50167;47.958;21.780;2023-05-29T11:23:05;29.50;38.50
63976;DHT22;50167;47.958;21.780;2023-05-29T11:25:37;29.50;38.33
63976;DHT22;50167;47.958;21.780;2023-05-29T11:28:04;29.44;38.41
63976;DHT22;50167;47.958;21.780;2023-05-29T11:30:46;29.20;38.83
63976;DHT22;50167;47.958;21.780;2023-05-29T11:33:19;29.19;39.24
63976;DHT22;50167;47.958;21.780;2023-05-29T11:35:42;29.26;38.33
63976;DHT22;50167;47.958;21.780;2023-05-29T11:38:08;29.34;37.90
63976;DHT22;50167;47.958;21.780;2023-05-29T11:40:37;29.47;38.57
63976;DHT22;50167;47.958;21.780;2023-05-29T11:43:04;29.61;38.71
63976;DHT22;50167;47.958;21.780;2023-05-29T11:45:32;29.78;37.87
63976;DHT22;50167;47.958;21.780;2023-05-29T11:48:02;29.98;38.19
63976;DHT22;50167;47.958;21.780;2023-05-29T11:50:31;30.13;36.08
63976;DHT22;50167;47.958;21.780;2023-05-29T11:52:59;30.19;36.38
63976;DHT22;50167;47.958;21.780;2023-05-29T11:55:27;30.32;35.04
63976;DHT22;50167;47.958;21.780;2023-05-29T11:57:59;30.25;34.89
63976;DHT22;50167;47.958;21.780;2023-05-29T12:00:35;30.32;34.81
63976;DHT22;50167;47.958;21.780;2023-05-29T12:03:04;30.50;34.71
63976;DHT22;50167;47.958;21.780;2023-05-29T12:05:47;30.67;35.79
63976;DHT22;50167;47.958;21.780;2023-05-29T12:08:15;30.84;35.19
63976;DHT22;50167;47.958;21.780;2023-05-29T12:10:49;30.97;34.45
63976;DHT22;50167;47.958;21.780;2023-05-29T12:13:18;31.11;34.61
63976;DHT22;50167;47.958;21.780;2023-05-29T12:15:44;31.07;34.50
63976;DHT22;50167;47.958;21.780;2023-05-29T12:18:10;30.90;34.79
63976;DHT22;50167;47.958;21.780;2023-05-29T12:20:37;30.59;34.69
63976;DHT22;50167;47.958;21.780;2023-05-29T12:30:39;29.99;36.50
63976;DHT22;50167;47.958;21.780;2023-05-29T12:33:06;30.04;36.72
63976;DHT22;50167;47.958;21.780;2023-05-29T12:35:32;30.20;36.80
63976;DHT22;50167;47.958;21.780;2023-05-29T12:38:01;30.23;35.50
63976;DHT22;50167;47.958;21.780;2023-05-29T12:40:36;29.96;36.12
63976;DHT22;50167;47.958;21.780;2023-05-29T12:43:07;29.72;36.84
63976;DHT22;50167;47.958;21.780;2023-05-29T12:45:36;29.57;36.88
63976;DHT22;50167;47.958;21.780;2023-05-29T12:48:06;29.46;36.83
63976;DHT22;50167;47.958;21.780;2023-05-29T12:50:35;29.74;37.25
63976;DHT22;50167;47.958;21.780;2023-05-29T12:55:36;30.77;36.49
63976;DHT22;50167;47.958;21.780;2023-05-29T12:58:10;31.46;34.76
63976;DHT22;50167;47.958;21.780;2023-05-29T13:00:35;31.94;33.95
63976;DHT22;50167;47.958;21.780;2023-05-29T13:03:01;31.98;33.73
63976;DHT22;50167;47.958;21.780;2023-05-29T13:05:28;31.79;34.05
63976;DHT22;50167;47.958;21.780;2023-05-29T13:07:54;31.46;33.05
63976;DHT22;50167;47.958;21.780;2023-05-29T13:10:21;31.09;32.89
63976;DHT22;50167;47.958;21.780;2023-05-29T13:12:49;30.75;33.75
63976;DHT22;50167;47.958;21.780;2023-05-29T13:15:24;30.52;35.14
63976;DHT22;50167;47.958;21.780;2023-05-29T13:17:53;30.20;36.59
63976;DHT22;50167;47.958;21.780;2023-05-29T13:20:20;30.01;36.80
63976;DHT22;50167;47.958;21.780;2023-05-29T13:22:47;30.01;37.41
63976;DHT22;50167;47.958;21.780;2023-05-29T13:25:15;29.98;37.75
63976;DHT22;50167;47.958;21.780;2023-05-29T13:27:46;29.85;36.87
63976;DHT22;50167;47.958;21.780;2023-05-29T13:30:16;29.69;35.53
63976;DHT22;50167;47.958;21.780;2023-05-29T13:32:42;29.75;35.50
63976;DHT22;50167;47.958;21.780;2023-05-29T13:35:09;30.08;35.09
63976;DHT22;50167;47.958;21.780;2023-05-29T13:37:36;30.57;34.60
63976;DHT22;50167;47.958;21.780;2023-05-29T13:40:04;30.69;34.94
63976;DHT22;50167;47.958;21.780;2023-05-29T13:42:33;30.59;34.89
63976;DHT22;50167;47.958;21.780;2023-05-29T13:45:01;30.37;34.96
63976;DHT22;50167;47.958;21.780;2023-05-29T13:47:27;29.99;35.06
63976;DHT22;50167;47.958;21.780;2023-05-29T13:49:56;29.57;35.77
63976;DHT22;50167;47.958;21.780;2023-05-29T13:52:25;29.16;36.59
63976;DHT22;50167;47.958;21.780;2023-05-29T13:54:51;28.83;37.41
63976;DHT22;50167;47.958;21.780;2023-05-29T13:57:17;28.47;37.67
63976;DHT22;50167;47.958;21.780;2023-05-29T13:59:46;28.13;38.63
63976;DHT22;50167;47.958;21.780;2023-05-29T14:02:12;27.87;40.65
63976;DHT22;50167;47.958;21.780;2023-05-29T14:04:40;27.73;41.35
63976;DHT22;50167;47.958;21.780;2023-05-29T14:07:22;27.61;41.73
63976;DHT22;50167;47.958;21.780;2023-05-29T14:09:50;27.42;43.48
63976;DHT22;50167;47.958;21.780;2023-05-29T14:12:16;27.38;43.83
63976;DHT22;50167;47.958;21.780;2023-05-29T14:14:44;27.35;43.82
63976;DHT22;50167;47.958;21.780;2023-05-29T14:17:15;27.32;43.40
63976;DHT22;50167;47.958;21.780;2023-05-29T14:19:43;27.38;43.64
63976;DHT22;50167;47.958;21.780;2023-05-29T14:22:13;27.65;43.38
63976;DHT22;50167;47.958;21.780;2023-05-29T14:24:41;27.75;42.08
63976;DHT22;50167;47.958;21.780;2023-05-29T14:27:08;27.73;42.84
63976;DHT22;50167;47.958;21.780;2023-05-29T14:29:34;27.76;43.17
63976;DHT22;50167;47.958;21.780;2023-05-29T14:32:00;27.90;42.88
63976;DHT22;50167;47.958;21.780;2023-05-29T14:34:26;28.71;41.26
63976;DHT22;50167;47.958;21.780;2023-05-29T14:36:52;29.92;39.37
63976;DHT22;50167;47.958;21.780;2023-05-29T14:39:18;31.18;37.13
63976;DHT22;50167;47.958;21.780;2023-05-29T14:41:45;32.21;35.47
63976;DHT22;50167;47.958;21.780;2023-05-29T14:44:13;33.05;34.70
63976;DHT22;50167;47.958;21.780;2023-05-29T14:46:39;33.92;32.85
63976;DHT22;50167;47.958;21.780;2023-05-29T14:49:07;34.81;31.24
63976;DHT22;50167;47.958;21.780;2023-05-29T14:51:34;35.46;29.40
63976;DHT22;50167;47.958;21.780;2023-05-29T14:54:01;35.22;29.85
63976;DHT22;50167;47.958;21.780;2023-05-29T14:56:27;34.83;29.94
63976;DHT22;50167;47.958;21.780;2023-05-29T14:58:54;34.71;30.37
63976;DHT22;50167;47.958;21.780;2023-05-29T15:01:20;34.30;30.78
63976;DHT22;50167;47.958;21.780;2023-05-29T15:03:48;33.68;31.85
63976;DHT22;50167;47.958;21.780;2023-05-29T15:06:15;33.00;31.62
63976;DHT22;50167;47.958;21.780;2023-05-29T15:08:43;32.34;32.56
63976;DHT22;50167;47.958;21.780;2023-05-29T15:11:09;31.72;33.32
63976;DHT22;50167;47.958;21.780;2023-05-29T15:13:37;31.11;33.65
63976;DHT22;50167;47.958;21.780;2023-05-29T15:16:04;30.59;34.81
63976;DHT22;50167;47.958;21.780;2023-05-29T15:18:30;30.06;35.29
63976;DHT22;50167;47.958;21.780;2023-05-29T15:20:59;29.57;36.07
63976;DHT22;50167;47.958;21.780;2023-05-29T15:23:26;29.07;37.21
63976;DHT22;50167;47.958;21.780;2023-05-29T15:25:53;28.60;37.70
63976;DHT22;50167;47.958;21.780;2023-05-29T15:28:19;28.20;38.28
63976;DHT22;50167;47.958;21.780;2023-05-29T15:30:46;27.99;38.64
63976;DHT22;50167;47.958;21.780;2023-05-29T15:33:13;28.03;38.70
63976;DHT22;50167;47.958;21.780;2023-05-29T15:35:40;28.19;38.78
63976;DHT22;50167;47.958;21.780;2023-05-29T15:38:09;28.43;38.06
63976;DHT22;50167;47.958;21.780;2023-05-29T15:40:35;28.85;37.13
63976;DHT22;50167;47.958;21.780;2023-05-29T15:43:01;29.02;35.72
63976;DHT22;50167;47.958;21.780;2023-05-29T15:45:32;29.14;36.30
63976;DHT22;50167;47.958;21.780;2023-05-29T15:47:56;29.34;35.63
63976;DHT22;50167;47.958;21.780;2023-05-29T15:50:22;29.46;35.35